WEATHER DATA

TODAY
Time Temp. Dewp. Hum. Wind dir Wind speed Wind gust Bar. 1h Prec. 24h Prec.
00:02 -1.5 -4 81 0 0.3 1018.4 0.0000 0.0000
00:12 -1.6 -4.3 80 306 0.3 0.6 1018.5 0.0000 0.0000
00:22 -1.8 -4.3 81 0 0.3 1018.4 0.0000 0.0000
00:32 -1.8 -4.3 81 305 0.3 0.8 1018.4 0.0000 0.0000
00:42 -1.9 -4.3 82 270 0.3 0.8 1018.5 0.0000 0.0000
00:52 -2 -4.4 82 0 0.3 1018.6 0.0000 0.0000
01:02 -2.1 -4.6 81 194 0.3 0.6 1018.6 0.0000 0.0000
01:12 -2.1 -4.5 82 270 0.3 0.8 1018.6 0.0000 0.0000
01:22 -2.1 -4.5 82 270 0.3 0.6 1018.6 0.0000 0.0000
01:32 -2.1 -4.5 82 327 0.3 0.6 1018.5 0.0000 0.0000
01:42 -2.2 -4.5 82 270 0.3 0.6 1018.6 0.0000 0.0000
01:52 -2.2 -4.4 83 0 0.3 1018.6 0.0000 0.0000
02:02 -2.3 -4.6 82 0 0.6 1018.4 0.0000 0.0000
02:12 -2.4 -4.7 82 270 0.3 0.6 1018.3 0.0000 0.0000
02:22 -2.4 -4.6 83 0 0.6 1018.5 0.0000 0.0000
02:33 -2.4 -4.7 82 0 0.3 1018.4 0.0000 0.0000
02:42 -2.4 -4.7 82 0 0.3 1018.3 0.0000 0.0000
02:52 -2.4 -4.7 82 270 0.3 0.6 1018.3 0.0000 0.0000
03:03 -2.4 -4.7 82 270 0.3 0.6 1018.3 0.0000 0.0000
03:13 -2.4 -4.6 83 315 0.3 0.6 1018.5 0.0000 0.0000
03:22 -2.4 -4.6 83 347 0.3 0.6 1018.3 0.0000 0.0000
03:32 -2.7 -5 82 0 0.3 1018.3 0.0000 0.0000
03:43 -2.7 -5 82 0 0.3 1018.3 0.0000 0.0000
03:53 -2.7 -4.9 83 270 0.3 0.6 1018.3 0.0000 0.0000
04:02 -2.7 -4.9 83 315 0.3 0.6 1018.4 0.0000 0.0000
04:13 -2.7 -4.9 83 323 0.3 0.6 1018.2 0.0000 0.0000
04:23 -2.8 -5.1 82 0 0.3 1018.2 0.0000 0.0000
04:33 -2.9 -5.2 82 0 0.6 1018.3 0.0000 0.0000
04:43 -2.8 -5 83 0 0.3 1018.1 0.0000 0.0000
04:53 -2.8 -5.1 82 270 0.3 0.6 1018.2 0.0000 0.0000
05:03 -2.8 -5 83 0 0.6 1018.3 0.0000 0.0000
05:13 -2.8 -5.1 82 0 0.3 1018.3 0.0000 0.0000
05:23 -3 -5.5 81 0 0.6 1018.4 0.0000 0.0000
05:33 -3 -5.3 82 270 0.3 0.6 1018.3 0.0000 0.0000
05:43 -3 -5.3 82 327 0.3 0.6 1018.5 0.0000 0.0000
05:53 -3.1 -5.4 82 270 0.3 0.6 1018.4 0.0000 0.0000
06:03 -3.1 -5.4 82 270 0.3 0.6 1018.4 0.0000 0.0000
06:13 -3 -5.2 83 334 0.3 0.6 1018.4 0.0000 0.0000
06:23 -3 -5.2 83 333 0.3 0.6 1018.5 0.0000 0.0000
06:34 -3.1 -5.4 82 0 0.3 1018.5 0.0000 0.0000
06:43 -3.1 -5.4 82 306 0.3 0.6 1018.6 0.0000 0.0000
06:53 -3.1 -5.3 83 315 0.3 0.6 1018.7 0.0000 0.0000
07:03 -3 -5.2 83 344 0.3 0.6 1018.7 0.0000 0.0000
07:14 -3 -5.2 83 351 0.3 0.6 1018.9 0.0000 0.0000
07:23 -3 -5.3 82 315 0.3 0.6 1018.9 0.0000 0.0000
07:33 -2.9 -5.1 83 356 0.3 0.6 1019 0.0000 0.0000
07:44 -2.9 -5.2 82 0 0.6 1019.2 0.0000 0.0000
07:54 -2.7 -4.9 83 0 0.3 1019.4 0.0000 0.0000
08:03 -2.4 -4.6 83 0 0.3 1019.4 0.0000 0.0000
08:14 -2.3 -4.4 84 0 0.6 1019.5 0.0000 0.0000
08:24 -2 -3.9 85 0 0.6 1019.6 0.0000 0.0000
08:34 -1.6 -3.5 85 0 0.6 1019.5 0.0000 0.0000
08:43 -1.3 -3.2 85 320 0.3 0.6 1019.7 0.0000 0.0000
08:54 -1 -3.1 84 354 0.3 0.6 1019.6 0.0000 0.0000
09:04 -0.6 -2.6 85 338 0.3 0.6 1019.6 0.0000 0.0000
09:14 -0.2 -2.2 85 8 0.3 0.6 1019.9 0.0000 0.0000
09:24 0.1 -1.9 85 16 0.3 0.8 1019.8 0.0000 0.0000
09:34 0.4 -1.6 85 0 0.6 1.1 1019.7 0.0000 0.0000
09:44 0.8 -1.3 85 0 0.6 1.1 1019.7 0.0000 0.0000
09:54 1.3 -0.7 86 2 0.3 0.8 1019.9 0.0000 0.0000
10:04 1.9 -0.3 85 90 0.3 0.8 1019.8 0.0000 0.0000
10:14 2.6 0.3 85 108 0.6 1.1 1019.8 0.0000 0.0000
10:24 3.1 0.7 84 64 0.6 1.1 1019.7 0.0000 0.0000
10:35 4 1.4 83 135 0.3 0.6 1019.7 0.0000 0.0000
10:44 4.7 1.9 82 180 0.3 1.4 1019.7 0.0000 0.0000
10:54 5.5 2.5 81 90 0.3 0.8 1019.6 0.0000 0.0000
11:04 6.3 2.8 78 188 0.6 1.4 1019.6 0.0000 0.0000
11:15 6.9 2.6 74 202 0.6 2.2 1019.7 0.0000 0.0000
11:24 7.4 2.7 72 195 0.6 1.7 1019.8 0.0000 0.0000
11:34 8.1 3.2 71 190 0.6 1.4 1019.7 0.0000 0.0000
11:45 8.5 2.9 68 178 0.8 1.9 1019.5 0.0000 0.0000
11:55 8.8 3 67 201 0.6 1.7 1019.7 0.0000 0.0000
12:04 8.9 2.9 66 204 0.6 1.7 1019.5 0.0000 0.0000
12:14 9.4 3.4 66 182 0.6 1.7 1019.3 0.0000 0.0000
12:25 9.7 3.4 65 181 0.6 1.4 1019.2 0.0000 0.0000
12:35 10 3.7 65 156 0.6 1.7 1019.3 0.0000 0.0000
12:44 10.2 3.9 65 174 0.3 1.4 1018.9 0.0000 0.0000
12:55 10.5 4 64 181 0.6 1.4 1018.9 0.0000 0.0000
13:05 10.5 3.8 63 198 0.6 1.1 1018.8 0.0000 0.0000
13:15 10.6 3.6 62 225 0.6 1.9 1018.8 0.0000 0.0000
13:25 10.5 3.5 62 225 0.8 3.1 1018.8 0.0000 0.0000
13:35 10.5 3.3 61 218 1.1 4.4 1018.7 0.0000 0.0000
13:45 10.4 3.2 61 233 1.1 3.6 1018.6 0.0000 0.0000
13:55 10.3 3.3 62 219 0.8 3.3 1018.7 0.0000 0.0000
14:05 10.1 3.4 63 243 0.6 3.9 1018.7 0.0000 0.0000
14:15 10 3.3 63 221 0.8 3.1 1018.5 0.0000 0.0000
14:25 9.8 3.3 64 231 0.8 3.3 1018.5 0.0000 0.0000
14:35 9.8 3.5 65 219 0.6 1.1 1018.5 0.0000 0.0000
14:45 9.7 3.4 65 233 0.8 1.9 1018.5 0.0000 0.0000
14:55 9.6 3.4 65 227 0.8 2.2 1018.8 0.0000 0.0000
15:05 9.4 3.4 66 270 0.3 1.4 1018.7 0.0000 0.0000
15:16 9.2 3.2 66 246 0.6 1.7 1019 0.0000 0.0000
15:25 9 3 66 288 0.6 1.4 1019.2 0.0000 0.0000
15:35 8.8 2.8 66 329 0.6 1.7 1019.2 0.0000 0.0000
15:46 8.5 2.7 67 270 0.3 0.8 1019.2 0.0000 0.0000
15:56 8.3 2.7 68 234 0.6 1.7 1019.3 0.0000 0.0000
16:05 8.1 2.6 68 225 0.8 2.2 1019.3 0.0000 0.0000
16:15 8 2.7 69 240 0.3 1.7 1019.2 0.0000 0.0000
16:26 7.8 2.5 69 315 0.3 1.1 1019.3 0.0000 0.0000
16:46 7.4 2.3 70 327 0.3 0.8 1019.4 0.0000 0.0000
16:56 7.3 2.4 71 323 0.3 0.8 1019.4 0.0000 0.0000
17:06 7.2 2.5 72 303 0.3 1.4 1019.4 0.0000 0.0000
17:16 7.1 2.4 72 326 0.6 1.7 1019.4 0.0000 0.0000
17:26 7 2.5 73 270 0.3 1.4 1019.6 0.0000 0.0000
17:51 6.7 2.4 74 232 0.6 2.2 1019.4 0.0000 0.0000

DAY STATISTIC

2019-02-19
TEMPERATURE
AVERAGE
2.2
HIGH
10.6
13:15
LOW
-3.1
05:53
PRESSURE
AVERAGE
1018.9
HIGH
1019.9
09:14
LOW
1018.1
04:43
DEWPOINT
AVERAGE
-1.3
HIGH
4.0
12:55
LOW
-5.5
05:23
HUMIDITY
AVERAGE
77
HIGH
86
09:54
LOW
61
13:35
WIND SPEED
AVERAGE
0.4
HIGH
1.1
13:35
WIND GUST
AVERAGE
1.1
HIGH
4.4
13:35
WIND DIRECTION
PREVAILING
NW
18.1%
N
10.5
NE
1.0
E
2.9
SE
1.9
S
13.3
SW
15.2
W
15.2
NW
18.1
PRECIPITATION
RAIN HOUR
0.0
RAIN DAY
0.0
TEMPERATURE (°C)
LOW
-3.1
HIGH
10.6
AVERAGE
2.2
PRESSURE (hpa)
LOW
1018.1
HIGH
1019.9
AVERAGE
1018.9
DEVICE